sensor_id;sensor_type;location;lat;lon;timestamp;P1;durP1;ratioP1;P2;durP2;ratioP2
77520;SDS011;66633;47.628;19.158;2023-05-07T00:00:34;17.67;;;12.02;;
77520;SDS011;66633;47.628;19.158;2023-05-07T00:02:59;18.33;;;12.80;;
77520;SDS011;66633;47.628;19.158;2023-05-07T00:05:25;15.70;;;10.27;;
77520;SDS011;66633;47.628;19.158;2023-05-07T00:07:50;14.98;;;10.18;;
77520;SDS011;66633;47.628;19.158;2023-05-07T00:10:17;17.05;;;11.20;;
77520;SDS011;66633;47.628;19.158;2023-05-07T00:12:42;14.10;;;9.77;;
77520;SDS011;66633;47.628;19.158;2023-05-07T00:15:08;17.60;;;11.67;;
77520;SDS011;66633;47.628;19.158;2023-05-07T00:17:33;17.33;;;11.88;;
77520;SDS011;66633;47.628;19.158;2023-05-07T00:19:58;16.17;;;11.23;;
77520;SDS011;66633;47.628;19.158;2023-05-07T00:22:24;13.23;;;9.13;;
77520;SDS011;66633;47.628;19.158;2023-05-07T00:24:49;18.00;;;11.80;;
77520;SDS011;66633;47.628;19.158;2023-05-07T00:27:14;15.57;;;11.02;;
77520;SDS011;66633;47.628;19.158;2023-05-07T00:29:40;15.75;;;11.10;;
77520;SDS011;66633;47.628;19.158;2023-05-07T00:32:05;15.67;;;10.00;;
77520;SDS011;66633;47.628;19.158;2023-05-07T00:34:30;14.70;;;8.97;;
77520;SDS011;66633;47.628;19.158;2023-05-07T00:36:55;15.30;;;11.07;;
77520;SDS011;66633;47.628;19.158;2023-05-07T00:39:20;18.13;;;11.30;;
77520;SDS011;66633;47.628;19.158;2023-05-07T00:41:46;15.25;;;10.25;;
77520;SDS011;66633;47.628;19.158;2023-05-07T00:44:12;13.80;;;10.10;;
77520;SDS011;66633;47.628;19.158;2023-05-07T00:46:37;17.13;;;12.73;;
77520;SDS011;66633;47.628;19.158;2023-05-07T00:49:02;14.88;;;10.48;;
77520;SDS011;66633;47.628;19.158;2023-05-07T00:51:28;17.15;;;11.48;;
77520;SDS011;66633;47.628;19.158;2023-05-07T00:53:53;16.13;;;11.00;;
77520;SDS011;66633;47.628;19.158;2023-05-07T00:56:20;18.10;;;12.70;;
77520;SDS011;66633;47.628;19.158;2023-05-07T00:58:46;20.48;;;14.95;;
77520;SDS011;66633;47.628;19.158;2023-05-07T01:01:11;18.00;;;12.15;;
77520;SDS011;66633;47.628;19.158;2023-05-07T01:03:37;17.57;;;13.47;;
77520;SDS011;66633;47.628;19.158;2023-05-07T01:06:02;18.17;;;13.53;;
77520;SDS011;66633;47.628;19.158;2023-05-07T01:08:27;17.27;;;12.65;;
77520;SDS011;66633;47.628;19.158;2023-05-07T01:10:55;15.00;;;10.95;;
77520;SDS011;66633;47.628;19.158;2023-05-07T01:13:20;15.60;;;11.23;;
77520;SDS011;66633;47.628;19.158;2023-05-07T01:15:46;15.55;;;10.70;;
77520;SDS011;66633;47.628;19.158;2023-05-07T01:18:11;17.55;;;12.52;;
77520;SDS011;66633;47.628;19.158;2023-05-07T01:20:36;17.40;;;11.98;;
77520;SDS011;66633;47.628;19.158;2023-05-07T01:23:01;23.20;;;15.67;;
77520;SDS011;66633;47.628;19.158;2023-05-07T01:25:28;19.98;;;14.95;;
77520;SDS011;66633;47.628;19.158;2023-05-07T01:27:53;14.10;;;10.23;;
77520;SDS011;66633;47.628;19.158;2023-05-07T01:30:19;17.63;;;11.63;;
77520;SDS011;66633;47.628;19.158;2023-05-07T01:32:53;13.85;;;10.15;;
77520;SDS011;66633;47.628;19.158;2023-05-07T01:35:22;18.10;;;12.82;;
77520;SDS011;66633;47.628;19.158;2023-05-07T01:37:49;15.32;;;9.85;;
77520;SDS011;66633;47.628;19.158;2023-05-07T01:40:15;14.75;;;11.05;;
77520;SDS011;66633;47.628;19.158;2023-05-07T01:42:41;15.93;;;10.95;;
77520;SDS011;66633;47.628;19.158;2023-05-07T01:45:07;19.77;;;14.43;;
77520;SDS011;66633;47.628;19.158;2023-05-07T01:47:33;17.45;;;12.43;;
77520;SDS011;66633;47.628;19.158;2023-05-07T01:49:58;16.08;;;11.45;;
77520;SDS011;66633;47.628;19.158;2023-05-07T01:52:24;14.13;;;10.50;;
77520;SDS011;66633;47.628;19.158;2023-05-07T01:54:50;15.50;;;10.98;;
77520;SDS011;66633;47.628;19.158;2023-05-07T01:57:15;15.57;;;10.33;;
77520;SDS011;66633;47.628;19.158;2023-05-07T01:59:40;19.93;;;12.60;;
77520;SDS011;66633;47.628;19.158;2023-05-07T02:02:05;19.00;;;14.82;;
77520;SDS011;66633;47.628;19.158;2023-05-07T02:04:31;20.37;;;15.73;;
77520;SDS011;66633;47.628;19.158;2023-05-07T02:06:56;18.85;;;13.38;;
77520;SDS011;66633;47.628;19.158;2023-05-07T02:09:21;15.95;;;10.88;;
77520;SDS011;66633;47.628;19.158;2023-05-07T02:11:48;16.15;;;11.52;;
77520;SDS011;66633;47.628;19.158;2023-05-07T02:14:13;14.43;;;10.32;;
77520;SDS011;66633;47.628;19.158;2023-05-07T02:16:38;18.23;;;12.37;;
77520;SDS011;66633;47.628;19.158;2023-05-07T02:19:03;16.13;;;11.33;;
77520;SDS011;66633;47.628;19.158;2023-05-07T02:21:29;20.45;;;13.35;;
77520;SDS011;66633;47.628;19.158;2023-05-07T02:23:54;15.07;;;9.87;;
77520;SDS011;66633;47.628;19.158;2023-05-07T02:26:19;17.00;;;12.73;;
77520;SDS011;66633;47.628;19.158;2023-05-07T02:28:44;12.57;;;9.77;;
77520;SDS011;66633;47.628;19.158;2023-05-07T02:31:09;14.33;;;9.93;;
77520;SDS011;66633;47.628;19.158;2023-05-07T02:33:35;15.40;;;10.27;;
77520;SDS011;66633;47.628;19.158;2023-05-07T02:36:07;14.68;;;11.05;;
77520;SDS011;66633;47.628;19.158;2023-05-07T02:38:33;19.13;;;12.95;;
77520;SDS011;66633;47.628;19.158;2023-05-07T02:40:58;16.83;;;12.13;;
77520;SDS011;66633;47.628;19.158;2023-05-07T02:43:23;16.97;;;10.93;;
77520;SDS011;66633;47.628;19.158;2023-05-07T02:45:49;14.95;;;10.48;;
77520;SDS011;66633;47.628;19.158;2023-05-07T02:48:14;13.00;;;8.85;;
77520;SDS011;66633;47.628;19.158;2023-05-07T02:50:39;17.70;;;11.07;;
77520;SDS011;66633;47.628;19.158;2023-05-07T02:53:05;17.65;;;12.05;;
77520;SDS011;66633;47.628;19.158;2023-05-07T02:55:30;14.47;;;9.90;;
77520;SDS011;66633;47.628;19.158;2023-05-07T02:57:56;15.15;;;10.38;;
77520;SDS011;66633;47.628;19.158;2023-05-07T03:00:21;14.60;;;9.63;;
77520;SDS011;66633;47.628;19.158;2023-05-07T03:02:46;14.40;;;10.50;;
77520;SDS011;66633;47.628;19.158;2023-05-07T03:05:12;15.32;;;9.68;;
77520;SDS011;66633;47.628;19.158;2023-05-07T03:07:37;15.93;;;10.85;;
77520;SDS011;66633;47.628;19.158;2023-05-07T03:10:03;15.75;;;10.63;;
77520;SDS011;66633;47.628;19.158;2023-05-07T03:12:28;14.13;;;9.23;;
77520;SDS011;66633;47.628;19.158;2023-05-07T03:14:54;13.47;;;9.43;;
77520;SDS011;66633;47.628;19.158;2023-05-07T03:17:20;14.83;;;9.47;;
77520;SDS011;66633;47.628;19.158;2023-05-07T03:19:45;12.93;;;8.57;;
77520;SDS011;66633;47.628;19.158;2023-05-07T03:22:10;16.37;;;11.37;;
77520;SDS011;66633;47.628;19.158;2023-05-07T03:24:35;13.45;;;10.43;;
77520;SDS011;66633;47.628;19.158;2023-05-07T03:27:01;13.00;;;8.73;;
77520;SDS011;66633;47.628;19.158;2023-05-07T03:29:26;16.73;;;12.18;;
77520;SDS011;66633;47.628;19.158;2023-05-07T03:31:51;18.90;;;12.47;;
77520;SDS011;66633;47.628;19.158;2023-05-07T03:34:16;18.70;;;11.77;;
77520;SDS011;66633;47.628;19.158;2023-05-07T03:36:46;15.45;;;10.25;;
77520;SDS011;66633;47.628;19.158;2023-05-07T03:39:12;18.70;;;13.53;;
77520;SDS011;66633;47.628;19.158;2023-05-07T03:41:37;19.48;;;13.07;;
77520;SDS011;66633;47.628;19.158;2023-05-07T03:44:02;19.53;;;14.00;;
77520;SDS011;66633;47.628;19.158;2023-05-07T03:46:27;16.02;;;11.48;;
77520;SDS011;66633;47.628;19.158;2023-05-07T03:48:53;20.90;;;14.98;;
77520;SDS011;66633;47.628;19.158;2023-05-07T03:51:18;19.70;;;13.00;;
77520;SDS011;66633;47.628;19.158;2023-05-07T03:53:43;17.27;;;12.20;;
77520;SDS011;66633;47.628;19.158;2023-05-07T03:56:08;18.33;;;12.33;;
77520;SDS011;66633;47.628;19.158;2023-05-07T03:58:34;18.35;;;12.23;;
77520;SDS011;66633;47.628;19.158;2023-05-07T04:00:59;16.73;;;11.57;;
77520;SDS011;66633;47.628;19.158;2023-05-07T04:03:25;15.10;;;10.47;;
77520;SDS011;66633;47.628;19.158;2023-05-07T04:05:50;15.57;;;10.17;;
77520;SDS011;66633;47.628;19.158;2023-05-07T04:08:15;18.33;;;12.05;;
77520;SDS011;66633;47.628;19.158;2023-05-07T04:10:40;20.23;;;14.47;;
77520;SDS011;66633;47.628;19.158;2023-05-07T04:13:06;20.93;;;14.27;;
77520;SDS011;66633;47.628;19.158;2023-05-07T04:15:31;18.52;;;12.88;;
77520;SDS011;66633;47.628;19.158;2023-05-07T04:17:56;15.77;;;10.53;;
77520;SDS011;66633;47.628;19.158;2023-05-07T04:20:22;17.42;;;11.80;;
77520;SDS011;66633;47.628;19.158;2023-05-07T04:22:47;15.27;;;10.07;;
77520;SDS011;66633;47.628;19.158;2023-05-07T04:25:12;15.70;;;10.83;;
77520;SDS011;66633;47.628;19.158;2023-05-07T04:27:38;25.37;;;17.40;;
77520;SDS011;66633;47.628;19.158;2023-05-07T04:30:03;23.03;;;16.93;;
77520;SDS011;66633;47.628;19.158;2023-05-07T04:32:29;22.30;;;16.02;;
77520;SDS011;66633;47.628;19.158;2023-05-07T04:34:54;18.95;;;13.27;;
77520;SDS011;66633;47.628;19.158;2023-05-07T04:37:20;27.02;;;20.15;;
77520;SDS011;66633;47.628;19.158;2023-05-07T04:39:45;23.50;;;16.63;;
77520;SDS011;66633;47.628;19.158;2023-05-07T04:42:14;22.93;;;16.97;;
77520;SDS011;66633;47.628;19.158;2023-05-07T04:44:39;19.50;;;13.70;;
77520;SDS011;66633;47.628;19.158;2023-05-07T04:47:05;21.58;;;16.05;;
77520;SDS011;66633;47.628;19.158;2023-05-07T04:49:30;27.95;;;19.90;;
77520;SDS011;66633;47.628;19.158;2023-05-07T04:51:55;27.67;;;18.97;;
77520;SDS011;66633;47.628;19.158;2023-05-07T04:54:20;19.77;;;15.27;;
77520;SDS011;66633;47.628;19.158;2023-05-07T04:56:46;25.53;;;16.60;;
77520;SDS011;66633;47.628;19.158;2023-05-07T04:59:11;25.25;;;17.98;;
77520;SDS011;66633;47.628;19.158;2023-05-07T05:01:36;22.35;;;16.23;;
77520;SDS011;66633;47.628;19.158;2023-05-07T05:04:02;23.90;;;18.27;;
77520;SDS011;66633;47.628;19.158;2023-05-07T05:06:27;24.42;;;18.63;;
77520;SDS011;66633;47.628;19.158;2023-05-07T05:08:52;21.80;;;16.23;;
77520;SDS011;66633;47.628;19.158;2023-05-07T05:11:17;21.67;;;15.55;;
77520;SDS011;66633;47.628;19.158;2023-05-07T05:13:43;21.37;;;16.20;;
77520;SDS011;66633;47.628;19.158;2023-05-07T05:16:08;19.60;;;13.85;;
77520;SDS011;66633;47.628;19.158;2023-05-07T05:18:34;18.17;;;13.47;;
77520;SDS011;66633;47.628;19.158;2023-05-07T05:20:59;19.27;;;14.30;;
77520;SDS011;66633;47.628;19.158;2023-05-07T05:23:24;18.03;;;13.20;;
77520;SDS011;66633;47.628;19.158;2023-05-07T05:25:50;18.77;;;14.00;;
77520;SDS011;66633;47.628;19.158;2023-05-07T05:28:15;18.53;;;13.07;;
77520;SDS011;66633;47.628;19.158;2023-05-07T05:30:40;18.37;;;12.27;;
77520;SDS011;66633;47.628;19.158;2023-05-07T05:33:05;17.50;;;12.57;;
77520;SDS011;66633;47.628;19.158;2023-05-07T05:35:31;18.63;;;12.13;;
77520;SDS011;66633;47.628;19.158;2023-05-07T05:37:56;15.13;;;11.43;;
77520;SDS011;66633;47.628;19.158;2023-05-07T05:40:22;16.42;;;11.02;;
77520;SDS011;66633;47.628;19.158;2023-05-07T05:42:47;16.30;;;10.70;;
77520;SDS011;66633;47.628;19.158;2023-05-07T05:45:12;15.30;;;11.47;;
77520;SDS011;66633;47.628;19.158;2023-05-07T05:47:38;13.80;;;10.98;;
77520;SDS011;66633;47.628;19.158;2023-05-07T05:50:04;17.25;;;11.40;;
77520;SDS011;66633;47.628;19.158;2023-05-07T05:52:31;14.60;;;10.45;;
77520;SDS011;66633;47.628;19.158;2023-05-07T05:54:56;12.00;;;8.93;;
77520;SDS011;66633;47.628;19.158;2023-05-07T05:57:21;13.90;;;10.13;;
77520;SDS011;66633;47.628;19.158;2023-05-07T05:59:47;12.27;;;8.73;;
77520;SDS011;66633;47.628;19.158;2023-05-07T06:02:12;12.57;;;8.88;;
77520;SDS011;66633;47.628;19.158;2023-05-07T06:04:37;12.15;;;9.35;;
77520;SDS011;66633;47.628;19.158;2023-05-07T06:07:02;11.40;;;8.83;;
77520;SDS011;66633;47.628;19.158;2023-05-07T06:09:28;11.15;;;7.55;;
77520;SDS011;66633;47.628;19.158;2023-05-07T06:11:53;11.57;;;8.20;;
77520;SDS011;66633;47.628;19.158;2023-05-07T06:14:18;12.47;;;8.77;;
77520;SDS011;66633;47.628;19.158;2023-05-07T06:16:44;13.70;;;10.73;;
77520;SDS011;66633;47.628;19.158;2023-05-07T06:19:09;11.23;;;8.93;;
77520;SDS011;66633;47.628;19.158;2023-05-07T06:21:34;12.23;;;9.07;;
77520;SDS011;66633;47.628;19.158;2023-05-07T06:23:59;10.03;;;7.33;;
77520;SDS011;66633;47.628;19.158;2023-05-07T06:26:25;9.57;;;6.77;;
77520;SDS011;66633;47.628;19.158;2023-05-07T06:28:50;12.30;;;7.73;;
77520;SDS011;66633;47.628;19.158;2023-05-07T06:31:16;9.10;;;6.35;;
77520;SDS011;66633;47.628;19.158;2023-05-07T06:33:42;10.85;;;7.22;;
77520;SDS011;66633;47.628;19.158;2023-05-07T06:36:07;15.20;;;8.02;;
77520;SDS011;66633;47.628;19.158;2023-05-07T06:38:33;10.27;;;7.00;;
77520;SDS011;66633;47.628;19.158;2023-05-07T06:40:58;9.33;;;6.67;;
77520;SDS011;66633;47.628;19.158;2023-05-07T06:43:23;9.52;;;6.50;;
77520;SDS011;66633;47.628;19.158;2023-05-07T06:45:48;9.90;;;6.30;;
77520;SDS011;66633;47.628;19.158;2023-05-07T06:48:14;11.55;;;7.20;;
77520;SDS011;66633;47.628;19.158;2023-05-07T06:50:39;9.88;;;6.88;;
77520;SDS011;66633;47.628;19.158;2023-05-07T06:53:05;10.37;;;6.10;;
77520;SDS011;66633;47.628;19.158;2023-05-07T06:55:30;8.20;;;5.13;;
77520;SDS011;66633;47.628;19.158;2023-05-07T06:57:55;7.72;;;5.00;;
77520;SDS011;66633;47.628;19.158;2023-05-07T07:00:23;8.88;;;5.60;;
77520;SDS011;66633;47.628;19.158;2023-05-07T07:02:48;8.75;;;5.93;;
77520;SDS011;66633;47.628;19.158;2023-05-07T07:05:13;11.33;;;7.27;;
77520;SDS011;66633;47.628;19.158;2023-05-07T07:07:38;9.60;;;6.43;;
77520;SDS011;66633;47.628;19.158;2023-05-07T07:10:04;13.43;;;7.37;;
77520;SDS011;66633;47.628;19.158;2023-05-07T07:12:29;10.15;;;7.45;;
77520;SDS011;66633;47.628;19.158;2023-05-07T07:14:55;11.10;;;7.40;;
77520;SDS011;66633;47.628;19.158;2023-05-07T07:17:20;9.30;;;6.40;;
77520;SDS011;66633;47.628;19.158;2023-05-07T07:19:45;9.63;;;5.83;;
77520;SDS011;66633;47.628;19.158;2023-05-07T07:22:11;9.67;;;5.83;;
77520;SDS011;66633;47.628;19.158;2023-05-07T07:24:36;7.03;;;4.75;;
77520;SDS011;66633;47.628;19.158;2023-05-07T07:27:01;7.18;;;4.40;;
77520;SDS011;66633;47.628;19.158;2023-05-07T07:29:26;6.43;;;4.32;;
77520;SDS011;66633;47.628;19.158;2023-05-07T07:31:52;5.93;;;3.70;;
77520;SDS011;66633;47.628;19.158;2023-05-07T07:34:17;5.67;;;3.67;;
77520;SDS011;66633;47.628;19.158;2023-05-07T07:36:42;6.22;;;3.83;;
77520;SDS011;66633;47.628;19.158;2023-05-07T07:39:07;6.90;;;3.97;;
77520;SDS011;66633;47.628;19.158;2023-05-07T07:41:33;8.35;;;3.85;;
77520;SDS011;66633;47.628;19.158;2023-05-07T07:43:58;9.15;;;6.25;;
77520;SDS011;66633;47.628;19.158;2023-05-07T07:46:23;6.73;;;4.53;;
77520;SDS011;66633;47.628;19.158;2023-05-07T07:48:49;5.75;;;3.63;;
77520;SDS011;66633;47.628;19.158;2023-05-07T07:51:14;8.45;;;6.53;;
77520;SDS011;66633;47.628;19.158;2023-05-07T07:53:39;5.33;;;3.13;;
77520;SDS011;66633;47.628;19.158;2023-05-07T07:56:06;7.32;;;3.00;;
77520;SDS011;66633;47.628;19.158;2023-05-07T07:58:32;5.80;;;3.13;;
77520;SDS011;66633;47.628;19.158;2023-05-07T08:00:57;5.87;;;3.53;;
77520;SDS011;66633;47.628;19.158;2023-05-07T08:03:23;4.78;;;2.35;;
77520;SDS011;66633;47.628;19.158;2023-05-07T08:05:48;5.53;;;3.50;;
77520;SDS011;66633;47.628;19.158;2023-05-07T08:08:16;6.22;;;3.47;;
77520;SDS011;66633;47.628;19.158;2023-05-07T08:10:41;4.70;;;2.60;;
77520;SDS011;66633;47.628;19.158;2023-05-07T08:13:06;5.65;;;2.67;;
77520;SDS011;66633;47.628;19.158;2023-05-07T08:15:32;4.97;;;2.45;;
77520;SDS011;66633;47.628;19.158;2023-05-07T08:17:57;4.63;;;2.30;;
77520;SDS011;66633;47.628;19.158;2023-05-07T08:20:23;5.93;;;2.22;;
77520;SDS011;66633;47.628;19.158;2023-05-07T08:22:48;4.53;;;2.58;;
77520;SDS011;66633;47.628;19.158;2023-05-07T08:25:13;5.85;;;2.40;;
77520;SDS011;66633;47.628;19.158;2023-05-07T08:27:39;5.80;;;2.53;;
77520;SDS011;66633;47.628;19.158;2023-05-07T08:30:04;5.33;;;2.30;;
77520;SDS011;66633;47.628;19.158;2023-05-07T08:32:29;4.95;;;2.70;;
77520;SDS011;66633;47.628;19.158;2023-05-07T08:34:55;10.90;;;5.35;;
77520;SDS011;66633;47.628;19.158;2023-05-07T08:37:20;5.97;;;3.10;;
77520;SDS011;66633;47.628;19.158;2023-05-07T08:39:45;5.88;;;2.70;;
77520;SDS011;66633;47.628;19.158;2023-05-07T08:42:11;4.80;;;2.45;;
77520;SDS011;66633;47.628;19.158;2023-05-07T08:44:37;5.10;;;2.53;;
77520;SDS011;66633;47.628;19.158;2023-05-07T08:47:03;5.88;;;2.63;;
77520;SDS011;66633;47.628;19.158;2023-05-07T08:49:31;4.95;;;2.58;;
77520;SDS011;66633;47.628;19.158;2023-05-07T08:51:56;4.63;;;2.40;;
77520;SDS011;66633;47.628;19.158;2023-05-07T08:54:21;4.97;;;2.88;;
77520;SDS011;66633;47.628;19.158;2023-05-07T08:56:47;5.50;;;2.42;;
77520;SDS011;66633;47.628;19.158;2023-05-07T08:59:13;3.92;;;2.30;;
77520;SDS011;66633;47.628;19.158;2023-05-07T09:01:38;4.82;;;2.63;;
77520;SDS011;66633;47.628;19.158;2023-05-07T09:04:03;4.68;;;2.80;;
77520;SDS011;66633;47.628;19.158;2023-05-07T09:06:29;4.95;;;2.40;;
77520;SDS011;66633;47.628;19.158;2023-05-07T09:08:55;4.55;;;2.40;;
77520;SDS011;66633;47.628;19.158;2023-05-07T09:11:23;4.63;;;2.40;;
77520;SDS011;66633;47.628;19.158;2023-05-07T09:13:56;7.95;;;3.05;;
77520;SDS011;66633;47.628;19.158;2023-05-07T09:16:23;4.88;;;2.28;;
77520;SDS011;66633;47.628;19.158;2023-05-07T09:18:50;5.65;;;2.15;;
77520;SDS011;66633;47.628;19.158;2023-05-07T09:21:16;5.30;;;2.47;;
77520;SDS011;66633;47.628;19.158;2023-05-07T09:23:42;4.10;;;2.35;;
77520;SDS011;66633;47.628;19.158;2023-05-07T09:26:07;4.93;;;2.50;;
77520;SDS011;66633;47.628;19.158;2023-05-07T09:28:38;4.28;;;2.10;;
77520;SDS011;66633;47.628;19.158;2023-05-07T09:31:03;4.93;;;3.03;;
77520;SDS011;66633;47.628;19.158;2023-05-07T09:33:29;4.70;;;2.60;;
77520;SDS011;66633;47.628;19.158;2023-05-07T09:35:55;4.35;;;2.50;;
77520;SDS011;66633;47.628;19.158;2023-05-07T09:38:20;4.55;;;2.60;;
77520;SDS011;66633;47.628;19.158;2023-05-07T09:40:46;4.93;;;2.53;;
77520;SDS011;66633;47.628;19.158;2023-05-07T09:43:13;4.88;;;2.72;;
77520;SDS011;66633;47.628;19.158;2023-05-07T09:45:38;5.78;;;2.88;;
77520;SDS011;66633;47.628;19.158;2023-05-07T09:48:05;5.28;;;3.03;;
77520;SDS011;66633;47.628;19.158;2023-05-07T09:50:32;5.35;;;2.88;;
77520;SDS011;66633;47.628;19.158;2023-05-07T09:52:59;4.75;;;2.75;;
77520;SDS011;66633;47.628;19.158;2023-05-07T09:55:25;4.32;;;2.60;;
77520;SDS011;66633;47.628;19.158;2023-05-07T09:57:51;4.80;;;2.78;;
77520;SDS011;66633;47.628;19.158;2023-05-07T10:00:18;6.68;;;2.63;;
77520;SDS011;66633;47.628;19.158;2023-05-07T10:02:44;5.45;;;2.92;;
77520;SDS011;66633;47.628;19.158;2023-05-07T10:05:14;5.35;;;3.00;;
77520;SDS011;66633;47.628;19.158;2023-05-07T10:07:40;5.50;;;2.97;;
77520;SDS011;66633;47.628;19.158;2023-05-07T10:10:06;5.75;;;3.08;;
77520;SDS011;66633;47.628;19.158;2023-05-07T10:12:31;5.63;;;2.88;;
77520;SDS011;66633;47.628;19.158;2023-05-07T10:15:02;4.85;;;2.60;;
77520;SDS011;66633;47.628;19.158;2023-05-07T10:17:28;5.35;;;2.53;;
77520;SDS011;66633;47.628;19.158;2023-05-07T10:19:54;4.80;;;2.80;;
77520;SDS011;66633;47.628;19.158;2023-05-07T10:22:19;4.43;;;2.50;;
77520;SDS011;66633;47.628;19.158;2023-05-07T10:24:45;5.05;;;2.65;;
77520;SDS011;66633;47.628;19.158;2023-05-07T10:27:13;4.50;;;2.30;;
77520;SDS011;66633;47.628;19.158;2023-05-07T10:29:52;5.30;;;3.10;;
77520;SDS011;66633;47.628;19.158;2023-05-07T10:34:48;5.32;;;2.55;;
77520;SDS011;66633;47.628;19.158;2023-05-07T10:37:15;5.07;;;2.85;;
77520;SDS011;66633;47.628;19.158;2023-05-07T10:39:41;4.60;;;2.65;;
77520;SDS011;66633;47.628;19.158;2023-05-07T10:42:07;5.63;;;3.00;;
77520;SDS011;66633;47.628;19.158;2023-05-07T10:44:32;5.88;;;3.20;;
77520;SDS011;66633;47.628;19.158;2023-05-07T10:49:29;4.55;;;2.80;;
77520;SDS011;66633;47.628;19.158;2023-05-07T10:54:39;5.40;;;3.58;;
77520;SDS011;66633;47.628;19.158;2023-05-07T10:59:48;5.70;;;3.55;;
77520;SDS011;66633;47.628;19.158;2023-05-07T11:02:14;5.82;;;3.72;;
77520;SDS011;66633;47.628;19.158;2023-05-07T11:04:40;6.10;;;3.85;;
77520;SDS011;66633;47.628;19.158;2023-05-07T11:12:15;5.35;;;2.97;;
77520;SDS011;66633;47.628;19.158;2023-05-07T11:17:07;6.32;;;3.40;;
77520;SDS011;66633;47.628;19.158;2023-05-07T11:19:54;5.53;;;3.50;;
77520;SDS011;66633;47.628;19.158;2023-05-07T11:25:04;5.97;;;3.53;;
77520;SDS011;66633;47.628;19.158;2023-05-07T11:27:30;6.38;;;3.50;;
77520;SDS011;66633;47.628;19.158;2023-05-07T11:29:56;6.15;;;3.47;;
77520;SDS011;66633;47.628;19.158;2023-05-07T11:34:56;6.07;;;3.63;;
77520;SDS011;66633;47.628;19.158;2023-05-07T11:37:22;5.10;;;3.40;;
77520;SDS011;66633;47.628;19.158;2023-05-07T11:39:48;6.03;;;3.60;;
77520;SDS011;66633;47.628;19.158;2023-05-07T11:42:29;6.68;;;3.88;;
77520;SDS011;66633;47.628;19.158;2023-05-07T11:44:55;5.20;;;3.25;;
77520;SDS011;66633;47.628;19.158;2023-05-07T11:47:20;6.72;;;3.63;;
77520;SDS011;66633;47.628;19.158;2023-05-07T11:49:49;5.57;;;3.42;;
77520;SDS011;66633;47.628;19.158;2023-05-07T11:52:15;6.30;;;3.70;;
77520;SDS011;66633;47.628;19.158;2023-05-07T11:54:41;5.07;;;2.83;;
77520;SDS011;66633;47.628;19.158;2023-05-07T11:57:06;5.70;;;3.80;;
77520;SDS011;66633;47.628;19.158;2023-05-07T11:59:38;5.95;;;3.47;;
77520;SDS011;66633;47.628;19.158;2023-05-07T12:02:05;4.90;;;3.10;;
77520;SDS011;66633;47.628;19.158;2023-05-07T12:04:31;7.07;;;3.47;;
77520;SDS011;66633;47.628;19.158;2023-05-07T12:06:56;6.27;;;3.60;;
77520;SDS011;66633;47.628;19.158;2023-05-07T12:09:21;6.03;;;3.77;;
77520;SDS011;66633;47.628;19.158;2023-05-07T12:11:46;6.18;;;3.90;;
77520;SDS011;66633;47.628;19.158;2023-05-07T12:14:12;6.40;;;3.75;;
77520;SDS011;66633;47.628;19.158;2023-05-07T12:16:38;6.10;;;4.10;;
77520;SDS011;66633;47.628;19.158;2023-05-07T12:19:04;7.05;;;4.22;;
77520;SDS011;66633;47.628;19.158;2023-05-07T12:21:31;6.85;;;3.83;;
77520;SDS011;66633;47.628;19.158;2023-05-07T12:23:56;6.47;;;4.15;;
77520;SDS011;66633;47.628;19.158;2023-05-07T12:26:22;6.00;;;3.83;;
77520;SDS011;66633;47.628;19.158;2023-05-07T12:28:49;6.85;;;4.25;;
77520;SDS011;66633;47.628;19.158;2023-05-07T12:31:14;5.67;;;3.50;;
77520;SDS011;66633;47.628;19.158;2023-05-07T12:33:40;5.20;;;3.28;;
77520;SDS011;66633;47.628;19.158;2023-05-07T12:36:06;5.60;;;3.60;;
77520;SDS011;66633;47.628;19.158;2023-05-07T12:38:34;6.90;;;4.03;;
77520;SDS011;66633;47.628;19.158;2023-05-07T12:40:59;5.85;;;3.20;;
77520;SDS011;66633;47.628;19.158;2023-05-07T12:43:25;4.85;;;3.00;;
77520;SDS011;66633;47.628;19.158;2023-05-07T12:45:51;6.25;;;3.20;;
77520;SDS011;66633;47.628;19.158;2023-05-07T12:48:18;7.00;;;3.60;;
77520;SDS011;66633;47.628;19.158;2023-05-07T12:50:44;5.50;;;3.10;;
77520;SDS011;66633;47.628;19.158;2023-05-07T12:53:10;4.90;;;2.90;;
77520;SDS011;66633;47.628;19.158;2023-05-07T12:55:46;5.25;;;3.10;;
77520;SDS011;66633;47.628;19.158;2023-05-07T13:00:37;6.40;;;4.00;;
77520;SDS011;66633;47.628;19.158;2023-05-07T13:03:03;6.07;;;3.25;;
77520;SDS011;66633;47.628;19.158;2023-05-07T13:05:28;6.28;;;3.03;;
77520;SDS011;66633;47.628;19.158;2023-05-07T13:07:54;5.63;;;3.47;;
77520;SDS011;66633;47.628;19.158;2023-05-07T13:10:19;6.38;;;3.40;;
77520;SDS011;66633;47.628;19.158;2023-05-07T13:12:45;5.55;;;3.35;;
77520;SDS011;66633;47.628;19.158;2023-05-07T13:15:10;6.07;;;4.20;;
77520;SDS011;66633;47.628;19.158;2023-05-07T13:17:35;7.22;;;3.78;;
77520;SDS011;66633;47.628;19.158;2023-05-07T13:20:01;5.95;;;3.30;;
77520;SDS011;66633;47.628;19.158;2023-05-07T13:22:26;5.60;;;3.05;;
77520;SDS011;66633;47.628;19.158;2023-05-07T13:24:51;6.10;;;4.07;;
77520;SDS011;66633;47.628;19.158;2023-05-07T13:27:16;5.80;;;4.10;;
77520;SDS011;66633;47.628;19.158;2023-05-07T13:29:43;6.95;;;4.43;;
77520;SDS011;66633;47.628;19.158;2023-05-07T13:32:08;5.67;;;3.73;;
77520;SDS011;66633;47.628;19.158;2023-05-07T13:34:33;7.77;;;3.53;;
77520;SDS011;66633;47.628;19.158;2023-05-07T13:36:59;6.07;;;3.72;;
77520;SDS011;66633;47.628;19.158;2023-05-07T13:39:24;5.22;;;3.40;;
77520;SDS011;66633;47.628;19.158;2023-05-07T13:41:50;4.80;;;3.40;;
77520;SDS011;66633;47.628;19.158;2023-05-07T13:44:15;5.20;;;2.80;;
77520;SDS011;66633;47.628;19.158;2023-05-07T13:46:40;6.23;;;3.10;;
77520;SDS011;66633;47.628;19.158;2023-05-07T13:49:06;7.65;;;3.42;;
77520;SDS011;66633;47.628;19.158;2023-05-07T13:51:31;5.97;;;3.57;;
77520;SDS011;66633;47.628;19.158;2023-05-07T13:53:56;5.78;;;3.40;;
77520;SDS011;66633;47.628;19.158;2023-05-07T13:56:23;5.32;;;3.20;;
77520;SDS011;66633;47.628;19.158;2023-05-07T13:58:48;6.50;;;3.33;;
77520;SDS011;66633;47.628;19.158;2023-05-07T14:01:13;6.37;;;3.30;;
77520;SDS011;66633;47.628;19.158;2023-05-07T14:03:39;5.93;;;3.45;;
77520;SDS011;66633;47.628;19.158;2023-05-07T14:06:05;7.50;;;3.25;;
77520;SDS011;66633;47.628;19.158;2023-05-07T14:08:30;6.07;;;3.40;;
77520;SDS011;66633;47.628;19.158;2023-05-07T14:10:55;6.10;;;3.87;;
77520;SDS011;66633;47.628;19.158;2023-05-07T14:13:20;5.57;;;3.53;;
77520;SDS011;66633;47.628;19.158;2023-05-07T14:15:46;5.18;;;3.17;;
77520;SDS011;66633;47.628;19.158;2023-05-07T14:18:13;6.28;;;4.10;;
77520;SDS011;66633;47.628;19.158;2023-05-07T14:20:38;7.70;;;3.65;;
77520;SDS011;66633;47.628;19.158;2023-05-07T14:23:04;5.97;;;3.40;;
77520;SDS011;66633;47.628;19.158;2023-05-07T14:25:29;6.67;;;3.43;;
77520;SDS011;66633;47.628;19.158;2023-05-07T14:27:54;7.18;;;3.55;;
77520;SDS011;66633;47.628;19.158;2023-05-07T14:30:19;5.37;;;3.17;;
77520;SDS011;66633;47.628;19.158;2023-05-07T14:32:45;6.25;;;3.50;;
77520;SDS011;66633;47.628;19.158;2023-05-07T14:35:10;6.15;;;3.55;;
77520;SDS011;66633;47.628;19.158;2023-05-07T14:37:35;7.97;;;3.63;;
77520;SDS011;66633;47.628;19.158;2023-05-07T14:40:01;5.63;;;3.30;;